sensor_id;sensor_type;location;lat;lon;timestamp;pressure;altitude;pressure_sealevel;temperature;humidity
62103;BME280;48077;48.104;11.702;2022-08-19T00:00:21;95068.53;;;17.13;100.00
62103;BME280;48077;48.104;11.702;2022-08-19T00:02:45;95072.03;;;17.13;100.00
62103;BME280;48077;48.104;11.702;2022-08-19T00:05:10;95080.63;;;17.15;100.00
62103;BME280;48077;48.104;11.702;2022-08-19T00:07:34;95071.75;;;17.15;100.00
62103;BME280;48077;48.104;11.702;2022-08-19T00:09:57;95049.38;;;17.14;100.00
62103;BME280;48077;48.104;11.702;2022-08-19T00:12:20;95047.03;;;17.08;100.00
62103;BME280;48077;48.104;11.702;2022-08-19T00:14:44;95051.03;;;17.10;100.00
62103;BME280;48077;48.104;11.702;2022-08-19T00:17:08;95024.50;;;16.98;100.00
62103;BME280;48077;48.104;11.702;2022-08-19T00:19:32;95025.53;;;17.03;100.00
62103;BME280;48077;48.104;11.702;2022-08-19T00:21:56;95031.16;;;17.06;100.00
62103;BME280;48077;48.104;11.702;2022-08-19T00:24:19;95017.19;;;17.04;100.00
62103;BME280;48077;48.104;11.702;2022-08-19T00:26:44;95015.00;;;17.06;100.00
62103;BME280;48077;48.104;11.702;2022-08-19T00:29:11;95021.19;;;17.07;100.00
62103;BME280;48077;48.104;11.702;2022-08-19T00:31:35;95015.03;;;17.01;100.00
62103;BME280;48077;48.104;11.702;2022-08-19T00:33:58;95016.94;;;17.01;100.00
62103;BME280;48077;48.104;11.702;2022-08-19T00:36:22;95010.53;;;16.91;100.00
62103;BME280;48077;48.104;11.702;2022-08-19T00:38:45;95026.94;;;16.95;100.00
62103;BME280;48077;48.104;11.702;2022-08-19T00:41:13;95026.69;;;16.91;100.00
62103;BME280;48077;48.104;11.702;2022-08-19T00:43:37;95016.75;;;16.92;100.00
62103;BME280;48077;48.104;11.702;2022-08-19T00:46:01;95016.75;;;16.92;100.00
62103;BME280;48077;48.104;11.702;2022-08-19T00:48:27;95007.84;;;16.91;100.00
62103;BME280;48077;48.104;11.702;2022-08-19T00:50:52;95008.66;;;16.92;100.00
62103;BME280;48077;48.104;11.702;2022-08-19T00:53:19;94997.59;;;16.93;100.00
62103;BME280;48077;48.104;11.702;2022-08-19T00:55:46;94990.03;;;16.95;100.00
62103;BME280;48077;48.104;11.702;2022-08-19T00:58:14;94991.13;;;16.94;100.00
62103;BME280;48077;48.104;11.702;2022-08-19T01:00:38;94982.28;;;16.89;100.00
62103;BME280;48077;48.104;11.702;2022-08-19T01:03:05;94990.63;;;16.92;100.00
62103;BME280;48077;48.104;11.702;2022-08-19T01:05:29;94991.47;;;16.88;100.00
62103;BME280;48077;48.104;11.702;2022-08-19T01:07:54;94983.66;;;16.86;100.00
62103;BME280;48077;48.104;11.702;2022-08-19T01:10:22;94982.88;;;16.86;100.00
62103;BME280;48077;48.104;11.702;2022-08-19T01:12:48;94970.75;;;16.83;100.00
62103;BME280;48077;48.104;11.702;2022-08-19T01:15:14;94969.09;;;16.87;100.00
62103;BME280;48077;48.104;11.702;2022-08-19T01:17:40;94972.09;;;16.86;100.00
62103;BME280;48077;48.104;11.702;2022-08-19T01:20:05;94973.97;;;16.85;100.00
62103;BME280;48077;48.104;11.702;2022-08-19T01:22:36;94997.66;;;16.88;100.00
62103;BME280;48077;48.104;11.702;2022-08-19T01:25:03;95005.16;;;16.91;100.00
62103;BME280;48077;48.104;11.702;2022-08-19T01:27:37;94998.72;;;16.87;100.00
62103;BME280;48077;48.104;11.702;2022-08-19T01:30:00;95017.56;;;16.92;100.00
62103;BME280;48077;48.104;11.702;2022-08-19T01:32:24;95032.34;;;16.95;100.00
62103;BME280;48077;48.104;11.702;2022-08-19T01:34:47;95044.16;;;16.99;100.00
62103;BME280;48077;48.104;11.702;2022-08-19T01:37:11;95047.34;;;17.01;100.00
62103;BME280;48077;48.104;11.702;2022-08-19T01:39:34;95044.66;;;17.01;100.00
62103;BME280;48077;48.104;11.702;2022-08-19T01:41:58;95032.34;;;16.95;100.00
62103;BME280;48077;48.104;11.702;2022-08-19T01:44:21;95038.81;;;16.94;100.00
62103;BME280;48077;48.104;11.702;2022-08-19T01:46:47;95041.50;;;16.94;100.00
62103;BME280;48077;48.104;11.702;2022-08-19T01:49:11;95046.38;;;16.92;100.00
62103;BME280;48077;48.104;11.702;2022-08-19T01:51:36;95044.75;;;16.91;100.00
62103;BME280;48077;48.104;11.702;2022-08-19T01:53:59;95055.25;;;16.92;100.00
62103;BME280;48077;48.104;11.702;2022-08-19T01:56:24;95054.16;;;16.93;100.00
62103;BME280;48077;48.104;11.702;2022-08-19T01:59:04;95045.03;;;16.89;100.00
62103;BME280;48077;48.104;11.702;2022-08-19T02:01:30;95034.56;;;16.88;100.00
62103;BME280;48077;48.104;11.702;2022-08-19T02:03:54;95032.16;;;16.86;100.00
62103;BME280;48077;48.104;11.702;2022-08-19T02:06:18;95042.34;;;16.89;100.00
62103;BME280;48077;48.104;11.702;2022-08-19T02:08:42;95047.97;;;16.93;100.00
62103;BME280;48077;48.104;11.702;2022-08-19T02:11:08;95057.69;;;16.94;100.00
62103;BME280;48077;48.104;11.702;2022-08-19T02:13:32;95052.31;;;16.89;100.00
62103;BME280;48077;48.104;11.702;2022-08-19T02:15:55;95054.47;;;16.92;100.00
62103;BME280;48077;48.104;11.702;2022-08-19T02:18:19;95058.19;;;16.96;100.00
62103;BME280;48077;48.104;11.702;2022-08-19T02:20:43;95064.38;;;16.96;100.00
62103;BME280;48077;48.104;11.702;2022-08-19T02:23:08;95066.56;;;16.94;100.00
62103;BME280;48077;48.104;11.702;2022-08-19T02:25:32;95063.34;;;16.92;100.00
62103;BME280;48077;48.104;11.702;2022-08-19T02:27:55;95066.81;;;16.93;100.00
62103;BME280;48077;48.104;11.702;2022-08-19T02:30:20;95061.16;;;16.94;100.00
62103;BME280;48077;48.104;11.702;2022-08-19T02:32:43;95057.16;;;16.92;100.00
62103;BME280;48077;48.104;11.702;2022-08-19T02:35:07;95050.63;;;16.98;100.00
62103;BME280;48077;48.104;11.702;2022-08-19T02:37:30;95049.28;;;16.95;100.00
62103;BME280;48077;48.104;11.702;2022-08-19T02:40:12;95036.69;;;16.91;100.00
62103;BME280;48077;48.104;11.702;2022-08-19T02:42:35;95018.63;;;16.91;100.00
62103;BME280;48077;48.104;11.702;2022-08-19T02:44:59;95006.59;;;16.84;100.00
62103;BME280;48077;48.104;11.702;2022-08-19T02:47:23;94995.81;;;16.84;100.00
62103;BME280;48077;48.104;11.702;2022-08-19T02:49:46;95002.53;;;16.86;100.00
62103;BME280;48077;48.104;11.702;2022-08-19T02:52:12;94986.16;;;16.77;100.00
62103;BME280;48077;48.104;11.702;2022-08-19T02:54:36;94983.97;;;16.79;100.00
62103;BME280;48077;48.104;11.702;2022-08-19T02:57:00;94993.41;;;16.77;100.00
62103;BME280;48077;48.104;11.702;2022-08-19T02:59:23;95003.06;;;16.83;100.00
62103;BME280;48077;48.104;11.702;2022-08-19T03:01:48;95005.00;;;16.77;100.00
62103;BME280;48077;48.104;11.702;2022-08-19T03:04:15;95018.44;;;16.83;100.00
62103;BME280;48077;48.104;11.702;2022-08-19T03:06:41;95011.47;;;16.82;100.00
62103;BME280;48077;48.104;11.702;2022-08-19T03:09:05;95003.72;;;16.70;100.00
62103;BME280;48077;48.104;11.702;2022-08-19T03:11:30;94991.38;;;16.64;100.00
62103;BME280;48077;48.104;11.702;2022-08-19T03:13:55;94999.72;;;16.62;100.00
62103;BME280;48077;48.104;11.702;2022-08-19T03:16:19;95003.00;;;16.59;100.00
62103;BME280;48077;48.104;11.702;2022-08-19T03:18:43;94991.75;;;16.52;100.00
62103;BME280;48077;48.104;11.702;2022-08-19T03:21:06;95002.50;;;16.52;100.00
62103;BME280;48077;48.104;11.702;2022-08-19T03:23:30;95015.94;;;16.57;100.00
62103;BME280;48077;48.104;11.702;2022-08-19T03:25:54;95022.13;;;16.57;100.00
62103;BME280;48077;48.104;11.702;2022-08-19T03:28:17;95024.03;;;16.57;100.00
62103;BME280;48077;48.104;11.702;2022-08-19T03:30:42;95024.78;;;16.63;100.00
62103;BME280;48077;48.104;11.702;2022-08-19T03:33:08;95032.88;;;16.63;100.00
62103;BME280;48077;48.104;11.702;2022-08-19T03:35:31;95026.38;;;16.64;100.00
62103;BME280;48077;48.104;11.702;2022-08-19T03:37:55;95026.38;;;16.64;100.00
62103;BME280;48077;48.104;11.702;2022-08-19T03:40:19;95032.81;;;16.68;100.00
62103;BME280;48077;48.104;11.702;2022-08-19T03:42:42;95035.50;;;16.68;100.00
62103;BME280;48077;48.104;11.702;2022-08-19T03:45:06;95023.16;;;16.67;100.00
62103;BME280;48077;48.104;11.702;2022-08-19T03:47:30;95036.28;;;16.73;100.00
62103;BME280;48077;48.104;11.702;2022-08-19T03:49:53;95035.22;;;16.69;100.00
62103;BME280;48077;48.104;11.702;2022-08-19T03:52:17;95027.69;;;16.71;100.00
62103;BME280;48077;48.104;11.702;2022-08-19T03:54:41;95037.13;;;16.69;100.00
62103;BME280;48077;48.104;11.702;2022-08-19T03:57:05;95033.91;;;16.67;100.00
62103;BME280;48077;48.104;11.702;2022-08-19T03:59:33;95038.19;;;16.68;100.00
62103;BME280;48077;48.104;11.702;2022-08-19T04:01:59;95041.13;;;16.71;100.00
62103;BME280;48077;48.104;11.702;2022-08-19T04:04:24;95035.16;;;16.74;100.00
62103;BME280;48077;48.104;11.702;2022-08-19T04:06:48;95025.16;;;16.80;100.00
62103;BME280;48077;48.104;11.702;2022-08-19T04:09:11;95026.50;;;16.83;100.00
62103;BME280;48077;48.104;11.702;2022-08-19T04:11:40;95017.38;;;16.78;100.00
62103;BME280;48077;48.104;11.702;2022-08-19T04:14:04;95024.31;;;16.90;100.00
62103;BME280;48077;48.104;11.702;2022-08-19T04:16:28;95019.19;;;16.88;100.00
62103;BME280;48077;48.104;11.702;2022-08-19T04:18:51;95031.28;;;16.91;100.00
62103;BME280;48077;48.104;11.702;2022-08-19T04:21:18;95036.69;;;16.91;100.00
62103;BME280;48077;48.104;11.702;2022-08-19T04:23:41;95030.78;;;16.89;100.00
62103;BME280;48077;48.104;11.702;2022-08-19T04:26:05;95028.06;;;16.89;100.00
62103;BME280;48077;48.104;11.702;2022-08-19T04:28:28;95023.56;;;16.84;100.00
62103;BME280;48077;48.104;11.702;2022-08-19T04:30:53;95044.75;;;16.91;100.00
62103;BME280;48077;48.104;11.702;2022-08-19T04:33:20;95047.19;;;16.92;100.00
62103;BME280;48077;48.104;11.702;2022-08-19T04:35:47;95043.44;;;16.88;100.00
62103;BME280;48077;48.104;11.702;2022-08-19T04:38:11;95050.22;;;16.86;100.00
62103;BME280;48077;48.104;11.702;2022-08-19T04:40:43;95060.41;;;16.89;100.00
62103;BME280;48077;48.104;11.702;2022-08-19T04:43:26;95054.22;;;16.88;100.00
62103;BME280;48077;48.104;11.702;2022-08-19T04:45:49;95073.06;;;16.88;100.00
62103;BME280;48077;48.104;11.702;2022-08-19T04:48:14;95084.91;;;16.87;100.00
62103;BME280;48077;48.104;11.702;2022-08-19T04:50:43;95077.94;;;16.86;100.00
62103;BME280;48077;48.104;11.702;2022-08-19T04:53:07;95080.63;;;16.86;100.00
62103;BME280;48077;48.104;11.702;2022-08-19T04:55:30;95082.22;;;16.87;100.00
62103;BME280;48077;48.104;11.702;2022-08-19T04:57:54;95083.03;;;16.88;100.00
62103;BME280;48077;48.104;11.702;2022-08-19T05:00:17;95084.13;;;16.87;100.00
62103;BME280;48077;48.104;11.702;2022-08-19T05:02:41;95078.78;;;16.82;100.00
62103;BME280;48077;48.104;11.702;2022-08-19T05:05:05;95085.22;;;16.86;100.00
62103;BME280;48077;48.104;11.702;2022-08-19T05:07:29;95090.59;;;16.86;100.00
62103;BME280;48077;48.104;11.702;2022-08-19T05:09:53;95092.19;;;16.87;100.00
62103;BME280;48077;48.104;11.702;2022-08-19T05:12:17;95093.03;;;16.82;100.00
62103;BME280;48077;48.104;11.702;2022-08-19T05:14:41;95091.66;;;16.85;100.00
62103;BME280;48077;48.104;11.702;2022-08-19T05:17:04;95087.34;;;16.89;100.00
62103;BME280;48077;48.104;11.702;2022-08-19T05:19:28;95081.66;;;16.90;100.00
62103;BME280;48077;48.104;11.702;2022-08-19T05:22:10;95078.69;;;16.92;100.00
62103;BME280;48077;48.104;11.702;2022-08-19T05:24:51;95085.13;;;16.96;100.00
62103;BME280;48077;48.104;11.702;2022-08-19T05:27:15;95088.88;;;17.00;100.00
62103;BME280;48077;48.104;11.702;2022-08-19T05:29:38;95077.78;;;17.02;100.00
62103;BME280;48077;48.104;11.702;2022-08-19T05:32:04;95079.13;;;17.04;100.00
62103;BME280;48077;48.104;11.702;2022-08-19T05:34:28;95079.41;;;17.03;100.00
62103;BME280;48077;48.104;11.702;2022-08-19T05:36:54;95077.50;;;17.03;100.00
62103;BME280;48077;48.104;11.702;2022-08-19T05:39:20;95077.50;;;17.03;100.00
62103;BME280;48077;48.104;11.702;2022-08-19T05:41:45;95066.22;;;17.01;100.00
62103;BME280;48077;48.104;11.702;2022-08-19T05:44:09;95064.63;;;17.00;100.00
62103;BME280;48077;48.104;11.702;2022-08-19T05:46:32;95070.53;;;17.02;100.00
62103;BME280;48077;48.104;11.702;2022-08-19T05:48:56;95070.22;;;17.04;100.00
62103;BME280;48077;48.104;11.702;2022-08-19T05:51:19;95065.66;;;17.04;100.00
62103;BME280;48077;48.104;11.702;2022-08-19T05:53:43;95061.34;;;17.03;100.00
62103;BME280;48077;48.104;11.702;2022-08-19T05:56:11;95061.34;;;17.03;100.00
62103;BME280;48077;48.104;11.702;2022-08-19T05:58:35;95058.94;;;17.02;100.00
62103;BME280;48077;48.104;11.702;2022-08-19T06:00:59;95059.44;;;17.04;100.00
62103;BME280;48077;48.104;11.702;2022-08-19T06:03:27;95059.44;;;17.04;100.00
62103;BME280;48077;48.104;11.702;2022-08-19T06:05:51;95061.28;;;17.08;100.00
62103;BME280;48077;48.104;11.702;2022-08-19T06:08:14;95060.50;;;17.08;100.00
62103;BME280;48077;48.104;11.702;2022-08-19T06:10:38;95072.06;;;17.08;100.00
62103;BME280;48077;48.104;11.702;2022-08-19T06:13:01;95079.88;;;17.10;100.00
62103;BME280;48077;48.104;11.702;2022-08-19T06:15:25;95083.88;;;17.12;100.00
62103;BME280;48077;48.104;11.702;2022-08-19T06:17:51;95090.38;;;17.11;100.00
62103;BME280;48077;48.104;11.702;2022-08-19T06:20:15;95081.50;;;17.11;100.00
62103;BME280;48077;48.104;11.702;2022-08-19T06:22:43;95079.06;;;17.09;100.00
62103;BME280;48077;48.104;11.702;2022-08-19T06:25:07;95073.16;;;17.07;100.00
62103;BME280;48077;48.104;11.702;2022-08-19T06:27:32;95080.41;;;17.12;100.00
62103;BME280;48077;48.104;11.702;2022-08-19T06:29:56;95078.50;;;17.12;100.00
62103;BME280;48077;48.104;11.702;2022-08-19T06:32:19;95076.91;;;17.11;100.00
62103;BME280;48077;48.104;11.702;2022-08-19T06:34:43;95072.03;;;17.13;100.00
62103;BME280;48077;48.104;11.702;2022-08-19T06:37:07;95072.28;;;17.17;100.00
62103;BME280;48077;48.104;11.702;2022-08-19T06:39:34;95072.78;;;17.19;100.00
62103;BME280;48077;48.104;11.702;2022-08-19T06:42:00;95070.66;;;17.16;100.00
62103;BME280;48077;48.104;11.702;2022-08-19T06:44:26;95074.38;;;17.20;100.00
62103;BME280;48077;48.104;11.702;2022-08-19T06:46:50;95087.31;;;17.23;100.00
62103;BME280;48077;48.104;11.702;2022-08-19T06:49:13;95082.44;;;17.25;100.00
62103;BME280;48077;48.104;11.702;2022-08-19T06:51:37;95081.63;;;17.25;100.00
62103;BME280;48077;48.104;11.702;2022-08-19T06:54:00;95089.16;;;17.28;100.00
62103;BME280;48077;48.104;11.702;2022-08-19T06:56:29;95089.38;;;17.31;100.00
62103;BME280;48077;48.104;11.702;2022-08-19T06:58:57;95085.03;;;17.35;100.00
62103;BME280;48077;48.104;11.702;2022-08-19T07:01:21;95083.13;;;17.36;100.00
62103;BME280;48077;48.104;11.702;2022-08-19T07:03:44;95079.69;;;17.30;100.00
62103;BME280;48077;48.104;11.702;2022-08-19T07:06:12;95078.53;;;17.36;100.00
62103;BME280;48077;48.104;11.702;2022-08-19T07:08:38;95079.06;;;17.38;100.00
62103;BME280;48077;48.104;11.702;2022-08-19T07:11:07;95073.09;;;17.42;100.00
62103;BME280;48077;48.104;11.702;2022-08-19T07:13:31;95064.38;;;17.50;100.00
62103;BME280;48077;48.104;11.702;2022-08-19T07:15:56;95054.94;;;17.52;100.00
62103;BME280;48077;48.104;11.702;2022-08-19T07:18:20;95055.13;;;17.56;100.00
62103;BME280;48077;48.104;11.702;2022-08-19T07:20:44;95048.38;;;17.58;100.00
62103;BME280;48077;48.104;11.702;2022-08-19T07:23:09;95030.03;;;17.60;100.00
62103;BME280;48077;48.104;11.702;2022-08-19T07:25:32;95048.28;;;17.69;100.00
62103;BME280;48077;48.104;11.702;2022-08-19T07:27:56;95033.91;;;17.73;100.00
62103;BME280;48077;48.104;11.702;2022-08-19T07:30:19;95024.94;;;17.78;100.00
62103;BME280;48077;48.104;11.702;2022-08-19T07:32:43;95021.88;;;17.90;100.00
62103;BME280;48077;48.104;11.702;2022-08-19T07:35:07;95027.47;;;17.93;100.00
62103;BME280;48077;48.104;11.702;2022-08-19T07:37:30;95032.22;;;18.02;100.00
62103;BME280;48077;48.104;11.702;2022-08-19T07:39:53;95026.75;;;18.07;100.00
62103;BME280;48077;48.104;11.702;2022-08-19T07:42:17;95030.16;;;18.12;100.00
62103;BME280;48077;48.104;11.702;2022-08-19T07:44:41;95034.63;;;18.22;100.00
62103;BME280;48077;48.104;11.702;2022-08-19T07:47:05;95032.66;;;18.28;100.00
62103;BME280;48077;48.104;11.702;2022-08-19T07:49:29;95040.69;;;18.33;100.00
62103;BME280;48077;48.104;11.702;2022-08-19T07:52:00;95043.38;;;18.33;100.00
62103;BME280;48077;48.104;11.702;2022-08-19T07:54:25;95046.72;;;18.25;98.31
62103;BME280;48077;48.104;11.702;2022-08-19T07:56:50;95050.41;;;18.15;99.02
62103;BME280;48077;48.104;11.702;2022-08-19T07:59:13;95061.09;;;18.20;99.74
62103;BME280;48077;48.104;11.702;2022-08-19T08:01:37;95060.81;;;18.22;100.00
62103;BME280;48077;48.104;11.702;2022-08-19T08:04:03;95055.16;;;18.23;99.28
62103;BME280;48077;48.104;11.702;2022-08-19T08:06:44;95057.91;;;18.18;99.60
62103;BME280;48077;48.104;11.702;2022-08-19T08:09:34;95065.75;;;18.14;99.41
62103;BME280;48077;48.104;11.702;2022-08-19T08:12:07;95066.59;;;18.15;100.00
62103;BME280;48077;48.104;11.702;2022-08-19T08:14:41;95070.88;;;18.16;100.00
62103;BME280;48077;48.104;11.702;2022-08-19T08:17:06;95060.88;;;18.16;100.00
62103;BME280;48077;48.104;11.702;2022-08-19T08:19:30;95058.25;;;18.11;100.00
62103;BME280;48077;48.104;11.702;2022-08-19T08:21:56;95067.66;;;18.14;100.00
62103;BME280;48077;48.104;11.702;2022-08-19T08:24:20;95066.59;;;18.15;100.00
62103;BME280;48077;48.104;11.702;2022-08-19T08:26:43;95068.53;;;18.09;100.00
62103;BME280;48077;48.104;11.702;2022-08-19T08:29:07;95077.16;;;18.11;100.00
62103;BME280;48077;48.104;11.702;2022-08-19T08:31:33;95077.16;;;18.11;100.00
62103;BME280;48077;48.104;11.702;2022-08-19T08:33:57;95077.44;;;18.10;100.00
62103;BME280;48077;48.104;11.702;2022-08-19T08:36:21;95084.75;;;18.09;100.00
62103;BME280;48077;48.104;11.702;2022-08-19T08:38:44;95083.19;;;18.03;100.00
62103;BME280;48077;48.104;11.702;2022-08-19T08:41:57;95084.31;;;18.02;100.00
62103;BME280;48077;48.104;11.702;2022-08-19T08:44:17;95096.75;;;17.98;100.00
62103;BME280;48077;48.104;11.702;2022-08-19T08:46:47;95100.31;;;17.93;100.00
62103;BME280;48077;48.104;11.702;2022-08-19T08:49:24;95095.78;;;17.89;100.00
62103;BME280;48077;48.104;11.702;2022-08-19T08:51:54;95100.38;;;17.88;100.00
62103;BME280;48077;48.104;11.702;2022-08-19T08:54:20;95096.38;;;17.86;100.00
62103;BME280;48077;48.104;11.702;2022-08-19T08:56:49;95097.97;;;17.87;100.00
62103;BME280;48077;48.104;11.702;2022-08-19T08:59:23;95096.59;;;17.89;100.00
62103;BME280;48077;48.104;11.702;2022-08-19T09:01:48;95095.53;;;17.85;100.00
62103;BME280;48077;48.104;11.702;2022-08-19T09:04:12;95107.97;;;17.86;100.00
62103;BME280;48077;48.104;11.702;2022-08-19T09:06:58;95110.16;;;17.84;100.00
62103;BME280;48077;48.104;11.702;2022-08-19T09:09:32;95102.84;;;17.85;100.00
62103;BME280;48077;48.104;11.702;2022-08-19T09:16:53;95099.88;;;17.86;100.00
62103;BME280;48077;48.104;11.702;2022-08-19T09:19:16;95097.19;;;17.81;100.00
62103;BME280;48077;48.104;11.702;2022-08-19T09:21:40;95104.75;;;17.84;100.00
62103;BME280;48077;48.104;11.702;2022-08-19T09:24:04;95096.06;;;17.87;100.00
62103;BME280;48077;48.104;11.702;2022-08-19T09:26:28;95102.97;;;17.98;100.00
62103;BME280;48077;48.104;11.702;2022-08-19T09:28:53;95112.53;;;18.10;100.00
62103;BME280;48077;48.104;11.702;2022-08-19T09:31:20;95095.13;;;18.21;100.00
62103;BME280;48077;48.104;11.702;2022-08-19T09:33:44;95089.88;;;18.30;100.00
62103;BME280;48077;48.104;11.702;2022-08-19T09:36:10;95093.00;;;18.37;100.00
62103;BME280;48077;48.104;11.702;2022-08-19T09:38:35;95097.97;;;18.49;100.00
62103;BME280;48077;48.104;11.702;2022-08-19T09:41:07;95088.19;;;18.53;100.00
62103;BME280;48077;48.104;11.702;2022-08-19T09:43:32;95091.81;;;18.62;100.00
62103;BME280;48077;48.104;11.702;2022-08-19T09:45:56;95083.53;;;18.58;98.10
62103;BME280;48077;48.104;11.702;2022-08-19T09:48:20;95087.66;;;18.70;98.14
62103;BME280;48077;48.104;11.702;2022-08-19T09:50:43;95090.28;;;18.75;96.65
62103;BME280;48077;48.104;11.702;2022-08-19T09:53:07;95091.16;;;18.89;97.00
62103;BME280;48077;48.104;11.702;2022-08-19T09:55:30;95105.00;;;19.01;96.44
62103;BME280;48077;48.104;11.702;2022-08-19T09:57:54;95105.06;;;19.15;96.34
62103;BME280;48077;48.104;11.702;2022-08-19T10:00:17;95106.81;;;19.25;94.14
62103;BME280;48077;48.104;11.702;2022-08-19T10:02:41;95097.00;;;19.29;93.80
62103;BME280;48077;48.104;11.702;2022-08-19T10:05:04;95106.41;;;19.46;93.89
62103;BME280;48077;48.104;11.702;2022-08-19T10:07:46;95111.06;;;19.59;94.56
62103;BME280;48077;48.104;11.702;2022-08-19T10:10:10;95103.53;;;19.56;94.13
62103;BME280;48077;48.104;11.702;2022-08-19T10:12:34;95107.56;;;19.58;93.54
62103;BME280;48077;48.104;11.702;2022-08-19T10:14:57;95111.47;;;19.52;92.98
62103;BME280;48077;48.104;11.702;2022-08-19T10:17:20;95105.16;;;19.57;93.65
62103;BME280;48077;48.104;11.702;2022-08-19T10:19:44;95108.06;;;19.60;93.90
62103;BME280;48077;48.104;11.702;2022-08-19T10:22:07;95100.84;;;19.70;93.67
62103;BME280;48077;48.104;11.702;2022-08-19T10:24:31;95104.88;;;19.86;90.78
62103;BME280;48077;48.104;11.702;2022-08-19T10:26:55;95103.09;;;19.81;88.41
62103;BME280;48077;48.104;11.702;2022-08-19T10:29:19;95097.06;;;19.98;89.12
62103;BME280;48077;48.104;11.702;2022-08-19T10:31:42;95088.84;;;20.04;87.30
62103;BME280;48077;48.104;11.702;2022-08-19T10:34:06;95093.94;;;20.05;88.87
62103;BME280;48077;48.104;11.702;2022-08-19T10:36:34;95093.53;;;20.12;87.17
62103;BME280;48077;48.104;11.702;2022-08-19T10:39:01;95089.94;;;20.02;85.54
62103;BME280;48077;48.104;11.702;2022-08-19T10:41:28;95089.63;;;20.04;85.52
62103;BME280;48077;48.104;11.702;2022-08-19T10:43:58;95081.91;;;20.11;86.46
62103;BME280;48077;48.104;11.702;2022-08-19T10:46:23;95092.19;;;20.37;86.30
62103;BME280;48077;48.104;11.702;2022-08-19T10:48:48;95087.75;;;20.55;84.29
62103;BME280;48077;48.104;11.702;2022-08-19T10:51:12;95096.81;;;20.73;83.96
62103;BME280;48077;48.104;11.702;2022-08-19T10:53:54;95088.03;;;20.53;80.98
62103;BME280;48077;48.104;11.702;2022-08-19T10:56:18;95089.19;;;20.38;83.30
62103;BME280;48077;48.104;11.702;2022-08-19T10:59:01;95098.03;;;20.16;84.14
62103;BME280;48077;48.104;11.702;2022-08-19T11:01:26;95098.75;;;20.08;85.65
62103;BME280;48077;48.104;11.702;2022-08-19T11:03:50;95082.91;;;20.15;84.35
62103;BME280;48077;48.104;11.702;2022-08-19T11:06:13;95085.69;;;20.24;85.78
62103;BME280;48077;48.104;11.702;2022-08-19T11:08:37;95073.34;;;20.32;85.68
62103;BME280;48077;48.104;11.702;2022-08-19T11:11:02;95075.94;;;20.37;83.89
62103;BME280;48077;48.104;11.702;2022-08-19T11:13:28;95061.59;;;20.36;84.64
62103;BME280;48077;48.104;11.702;2022-08-19T11:16:00;95060.69;;;20.41;84.17
62103;BME280;48077;48.104;11.702;2022-08-19T11:18:24;95063.06;;;20.56;84.12
62103;BME280;48077;48.104;11.702;2022-08-19T11:20:47;95066.28;;;20.58;83.38
62103;BME280;48077;48.104;11.702;2022-08-19T11:23:10;95071.59;;;20.50;81.10
62103;BME280;48077;48.104;11.702;2022-08-19T11:25:38;95078.00;;;20.54;82.64
62103;BME280;48077;48.104;11.702;2022-08-19T11:28:01;95074.91;;;20.47;83.14
62103;BME280;48077;48.104;11.702;2022-08-19T11:30:25;95071.81;;;20.39;83.87
62103;BME280;48077;48.104;11.702;2022-08-19T11:32:48;95071.50;;;20.41;84.20
62103;BME280;48077;48.104;11.702;2022-08-19T11:35:12;95068.00;;;20.40;83.76
62103;BME280;48077;48.104;11.702;2022-08-19T11:37:36;95064.59;;;20.49;84.07
62103;BME280;48077;48.104;11.702;2022-08-19T11:40:01;95064.38;;;20.59;82.30
62103;BME280;48077;48.104;11.702;2022-08-19T11:42:24;95062.28;;;20.78;82.33
62103;BME280;48077;48.104;11.702;2022-08-19T11:45:06;95065.53;;;21.12;80.80
62103;BME280;48077;48.104;11.702;2022-08-19T11:47:30;95060.72;;;21.31;79.66
62103;BME280;48077;48.104;11.702;2022-08-19T11:49:53;95065.03;;;21.63;78.10
62103;BME280;48077;48.104;11.702;2022-08-19T11:52:17;95051.19;;;22.49;75.52
62103;BME280;48077;48.104;11.702;2022-08-19T11:54:40;95053.88;;;23.10;72.52
62103;BME280;48077;48.104;11.702;2022-08-19T11:57:04;95058.53;;;22.74;72.61
62103;BME280;48077;48.104;11.702;2022-08-19T11:59:27;95059.19;;;22.36;73.52
62103;BME280;48077;48.104;11.702;2022-08-19T12:01:50;95057.41;;;22.32;73.62
62103;BME280;48077;48.104;11.702;2022-08-19T12:04:14;95067.66;;;21.86;74.49
62103;BME280;48077;48.104;11.702;2022-08-19T12:06:39;95063.47;;;21.40;75.02
62103;BME280;48077;48.104;11.702;2022-08-19T12:09:05;95068.28;;;21.20;75.41
62103;BME280;48077;48.104;11.702;2022-08-19T12:11:29;95074.16;;;20.91;76.17
62103;BME280;48077;48.104;11.702;2022-08-19T12:13:52;95071.50;;;20.55;76.79
62103;BME280;48077;48.104;11.702;2022-08-19T12:16:19;95080.03;;;20.48;78.15
62103;BME280;48077;48.104;11.702;2022-08-19T12:18:43;95084.59;;;20.25;79.78
62103;BME280;48077;48.104;11.702;2022-08-19T12:21:09;95084.13;;;20.09;79.48
62103;BME280;48077;48.104;11.702;2022-08-19T12:23:34;95080.41;;;20.05;80.61
62103;BME280;48077;48.104;11.702;2022-08-19T12:25:57;95082.69;;;20.26;80.79
62103;BME280;48077;48.104;11.702;2022-08-19T12:28:22;95074.69;;;20.57;79.80
62103;BME280;48077;48.104;11.702;2022-08-19T12:30:47;95084.53;;;20.67;78.17
62103;BME280;48077;48.104;11.702;2022-08-19T12:33:10;95086.31;;;20.71;78.80
62103;BME280;48077;48.104;11.702;2022-08-19T12:35:34;95075.41;;;20.63;77.64
62103;BME280;48077;48.104;11.702;2022-08-19T12:37:57;95107.94;;;20.63;77.27